Time;durP1;ratioP1;P1;durP2;ratioP2;P2;SDS_P1;SDS_P2;PMS_P1;PMS_P2;Temp;Humidity;BMP_temperature;BMP_pressure;BME280_temperature;BME280_humidity;BME280_pressure;Samples;Min_cycle;Max_cycle;Signal;HPM_P1;HPM_P2
2021/11/08 00:01:39;;;;;;;9.75;2.22;;;8.00;99.90;;;;;;5054165;28;20031;-38
2021/11/08 00:04:05;;;;;;;12.60;1.60;;;8.00;99.90;;;;;;5054230;28;20498;-39
2021/11/08 00:06:31;;;;;;;8.30;1.80;;;8.00;99.90;;;;;;5054074;28;20033;-37
2021/11/08 00:08:57;;;;;;;9.20;1.60;;;8.00;99.90;;;;;;5054024;28;20500;-36
2021/11/08 00:11:25;;;;;;;7.40;1.63;;;8.00;99.90;;;;;;5054215;28;20052;-39
2021/11/08 00:13:51;;;;;;;6.57;1.73;;;8.00;99.90;;;;;;5052697;28;20033;-37
2021/11/08 00:19:21;;;;;;;9.40;1.98;;;8.00;99.90;;;;;;5054007;28;20027;-39
2021/11/08 00:21:48;;;;;;;8.23;2.17;;;8.00;99.90;;;;;;5053888;28;20029;-37
2021/11/08 00:24:17;;;;;;;6.32;1.52;;;8.00;99.90;;;;;;5053948;28;20108;-39
2021/11/08 00:26:43;;;;;;;7.43;1.73;;;8.00;99.90;;;;;;5053743;28;20036;-37
2021/11/08 00:29:09;;;;;;;5.20;1.95;;;8.00;99.90;;;;;;5052663;28;20021;-37
2021/11/08 00:31:34;;;;;;;7.72;1.60;;;8.00;99.90;;;;;;5053339;28;20045;-38
2021/11/08 00:34:00;;;;;;;8.07;1.35;;;8.00;99.90;;;;;;5053509;28;20494;-38
2021/11/08 00:36:26;;;;;;;8.90;2.40;;;8.00;99.90;;;;;;5053575;28;20029;-37
2021/11/08 00:38:51;;;;;;;7.07;1.92;;;8.00;99.90;;;;;;5053550;28;20392;-37
2021/11/08 00:41:17;;;;;;;13.18;1.88;;;8.00;99.90;;;;;;5072915;28;20028;-37
2021/11/08 00:43:42;;;;;;;10.75;1.77;;;8.00;99.90;;;;;;5073040;28;20031;-37
2021/11/08 00:46:08;;;;;;;13.75;2.83;;;8.00;99.90;;;;;;5074312;28;20025;-37
2021/11/08 00:48:36;;;;;;;8.50;1.98;;;8.00;99.90;;;;;;5074085;28;20017;-38
2021/11/08 00:51:03;;;;;;;9.63;1.75;;;8.00;99.90;;;;;;5074166;28;20021;-38
2021/11/08 00:53:30;;;;;;;10.70;1.77;;;8.00;99.90;;;;;;5074158;28;20427;-39
2021/11/08 00:55:57;;;;;;;10.55;2.05;;;8.00;99.90;;;;;;5074047;28;20028;-39
2021/11/08 00:58:34;;;;;;;7.53;2.20;;;8.00;99.90;;;;;;5072789;28;20092;-40
2021/11/08 01:01:03;;;;;;;9.95;1.73;;;7.90;99.90;;;;;;5073887;28;20016;-38
2021/11/08 01:03:31;;;;;;;9.30;1.75;;;7.90;99.90;;;;;;5073985;28;20496;-38
2021/11/08 01:05:56;;;;;;;6.85;2.13;;;8.00;99.90;;;;;;5073666;28;20392;-38
2021/11/08 01:08:22;;;;;;;8.20;1.45;;;7.90;99.90;;;;;;5073854;28;20024;-38
2021/11/08 01:10:48;;;;;;;10.70;2.10;;;8.00;99.90;;;;;;5073706;28;20107;-38
2021/11/08 01:13:13;;;;;;;8.63;2.15;;;8.00;99.90;;;;;;5072384;28;20021;-37
2021/11/08 01:15:39;;;;;;;8.88;2.00;;;8.00;99.90;;;;;;5073502;28;20032;-38
2021/11/08 01:18:05;;;;;;;9.35;1.73;;;8.00;99.90;;;;;;5073669;28;20031;-38
2021/11/08 01:20:35;;;;;;;9.68;1.83;;;8.00;99.90;;;;;;5073625;28;20035;-38
2021/11/08 01:23:04;;;;;;;8.05;2.08;;;8.00;99.90;;;;;;5073456;28;20373;-38
2021/11/08 01:25:31;;;;;;;10.02;1.80;;;8.10;99.90;;;;;;5073539;28;20111;-39
2021/11/08 01:27:59;;;;;;;10.88;1.52;;;8.10;99.90;;;;;;5071855;28;20456;-37
2021/11/08 01:30:27;;;;;;;12.23;2.30;;;8.10;99.90;;;;;;5073381;28;20029;-38
2021/11/08 01:33:08;;;;;;;6.05;1.75;;;8.10;99.90;;;;;;5073073;28;20048;-37
2021/11/08 01:35:44;;;;;;;6.45;1.73;;;8.10;99.90;;;;;;5073349;28;20021;-38
2021/11/08 01:38:13;;;;;;;;;;;8.10;99.90;;;;;;5073802;28;20020;-38
2021/11/08 01:40:40;;;;;;;8.80;1.67;;;8.20;99.90;;;;;;5073111;28;19928;-38
2021/11/08 01:43:07;;;;;;;11.68;1.58;;;8.10;99.90;;;;;;5071638;28;20020;-37
2021/11/08 01:45:34;;;;;;;5.22;1.52;;;8.20;99.90;;;;;;5072909;28;20028;-37
2021/11/08 01:48:00;;;;;;;6.80;2.20;;;8.20;99.90;;;;;;5073053;28;20037;-37
2021/11/08 01:50:27;;;;;;;13.25;2.00;;;8.20;99.90;;;;;;5073023;28;20065;-36
2021/11/08 01:52:53;;;;;;;7.28;1.67;;;8.20;99.90;;;;;;5072898;28;20029;-38
2021/11/08 01:55:21;;;;;;;11.50;1.75;;;8.20;99.90;;;;;;5072864;28;20020;-37
2021/11/08 01:57:47;;;;;;;6.88;1.90;;;8.20;99.90;;;;;;5071620;28;20024;-38
2021/11/08 02:00:14;;;;;;;6.70;1.63;;;8.20;99.90;;;;;;5072941;28;20042;-37
2021/11/08 02:02:40;;;;;;;8.48;1.75;;;8.20;99.90;;;;;;5072905;28;20574;-37
2021/11/08 02:05:06;;;;;;;8.57;1.48;;;8.30;99.90;;;;;;5072797;28;20166;-39
2021/11/08 02:07:31;;;;;;;4.90;1.65;;;8.20;99.90;;;;;;5072806;28;20029;-38
2021/11/08 02:09:58;;;;;;;8.77;1.90;;;8.20;99.90;;;;;;5072660;28;20078;-37
2021/11/08 02:12:24;;;;;;;4.53;1.73;;;8.30;99.90;;;;;;5071492;28;20438;-38
2021/11/08 02:14:50;;;;;;;9.38;2.05;;;8.30;99.90;;;;;;5072707;28;20036;-37
2021/11/08 02:17:15;;;;;;;9.88;2.22;;;8.20;99.90;;;;;;5072890;28;20475;-37
2021/11/08 02:19:41;;;;;;;12.65;1.98;;;8.30;99.90;;;;;;5072721;28;20063;-37
2021/11/08 02:22:07;;;;;;;9.68;1.85;;;8.30;99.90;;;;;;5072739;28;20476;-37
2021/11/08 02:24:35;;;;;;;6.63;1.55;;;8.30;99.90;;;;;;5072527;28;20031;-37
2021/11/08 02:27:01;;;;;;;8.35;2.03;;;8.20;99.90;;;;;;5072414;28;20032;-37
2021/11/08 02:29:27;;;;;;;6.18;1.50;;;8.20;99.90;;;;;;5071830;28;20025;-37
2021/11/08 02:31:53;;;;;;;6.68;1.45;;;8.20;99.90;;;;;;5072305;28;20055;-37
2021/11/08 02:34:20;;;;;;;7.60;1.70;;;8.20;99.90;;;;;;5072917;28;20059;-37
2021/11/08 02:36:45;;;;;;;8.15;1.85;;;8.30;99.90;;;;;;5072518;28;20020;-39
2021/11/08 02:39:21;;;;;;;9.15;1.58;;;8.20;99.90;;;;;;5072391;28;20481;-38
2021/11/08 02:41:48;;;;;;;9.23;1.52;;;8.20;99.90;;;;;;5072503;28;20122;-38
2021/11/08 02:44:14;;;;;;;4.57;2.00;;;8.20;99.90;;;;;;5071168;28;20021;-37
2021/11/08 02:46:41;;;;;;;5.88;1.45;;;8.20;99.90;;;;;;5072485;28;20051;-39
2021/11/08 02:49:09;;;;;;;6.68;1.92;;;8.20;99.90;;;;;;5072354;28;20061;-38
2021/11/08 02:51:36;;;;;;;7.72;1.75;;;8.20;99.90;;;;;;5072302;28;20036;-37
2021/11/08 02:54:10;;;;;;;9.75;1.67;;;8.20;99.90;;;;;;5072311;28;20029;-38
2021/11/08 02:56:36;;;;;;;4.55;1.52;;;8.20;99.90;;;;;;5074439;28;20458;-38
2021/11/08 02:59:02;;;;;;;9.50;2.03;;;8.20;99.90;;;;;;5075003;28;20036;-38
2021/11/08 03:01:28;;;;;;;5.07;1.85;;;8.20;99.90;;;;;;5076373;28;20028;-37
2021/11/08 03:03:59;;;;;;;7.80;1.55;;;8.30;99.90;;;;;;5076189;28;20017;-37
2021/11/08 03:06:32;;;;;;;9.75;1.60;;;8.30;99.90;;;;;;5076232;28;20021;-37
2021/11/08 03:09:18;;;;;;;9.65;1.70;;;8.20;99.90;;;;;;5076102;28;20013;-37
2021/11/08 03:11:44;;;;;;;5.65;1.50;;;8.20;99.90;;;;;;5076269;28;20480;-37
2021/11/08 03:14:14;;;;;;;8.52;2.35;;;8.30;99.90;;;;;;5074663;28;20115;-39
2021/11/08 03:16:56;;;;;;;10.30;1.95;;;8.20;99.90;;;;;;5075937;28;20099;-39
2021/11/08 03:19:34;;;;;;;8.63;1.83;;;8.30;99.90;;;;;;5075971;28;20017;-38
2021/11/08 03:22:02;;;;;;;6.45;1.92;;;8.30;99.90;;;;;;5075805;28;20074;-38
2021/11/08 03:24:39;;;;;;;7.78;2.00;;;8.30;99.90;;;;;;5075881;28;20024;-39
2021/11/08 03:27:24;;;;;;;6.40;1.63;;;8.30;99.90;;;;;;5074446;28;20020;-38
2021/11/08 03:29:51;;;;;;;3.25;1.38;;;8.30;99.90;;;;;;5075624;28;20491;-37
2021/11/08 03:32:18;;;;;;;6.35;1.85;;;8.30;99.90;;;;;;5075367;28;20499;-38
2021/11/08 03:35:02;;;;;;;4.85;1.50;;;8.30;99.90;;;;;;5075668;28;20025;-38
2021/11/08 03:37:36;;;;;;;5.63;1.90;;;8.30;99.90;;;;;;5075617;28;20024;-39
2021/11/08 03:40:03;;;;;;;8.10;1.90;;;8.30;99.90;;;;;;5075442;28;20110;-38
2021/11/08 03:42:29;;;;;;;7.72;2.08;;;8.30;99.90;;;;;;5074354;28;20048;-37
2021/11/08 03:44:54;;;;;;;12.82;1.42;;;8.30;99.90;;;;;;5075495;28;20487;-36
2021/11/08 03:47:20;;;;;;;5.43;2.17;;;8.40;99.90;;;;;;5075438;28;20020;-38
2021/11/08 03:49:46;;;;;;;4.43;1.00;;;8.40;99.90;;;;;;5075496;28;20464;-38
2021/11/08 03:52:11;;;;;;;5.65;1.58;;;8.40;99.90;;;;;;5075017;28;20029;-38
2021/11/08 03:54:37;;;;;;;5.38;1.70;;;8.40;99.90;;;;;;5075372;28;20025;-37
2021/11/08 03:57:03;;;;;;;4.10;1.65;;;8.40;99.90;;;;;;5074197;28;20028;-38
2021/11/08 03:59:28;;;;;;;3.97;1.52;;;8.40;99.90;;;;;;5075194;28;20028;-37
2021/11/08 04:01:54;;;;;;;4.38;1.85;;;8.50;99.90;;;;;;5075146;28;20111;-38
2021/11/08 04:04:19;;;;;;;8.88;2.05;;;8.40;99.90;;;;;;5075190;28;20067;-37
2021/11/08 04:06:48;;;;;;;8.02;1.73;;;8.40;99.90;;;;;;5074429;28;20032;-37
2021/11/08 04:09:15;;;;;;;6.68;1.98;;;8.50;99.90;;;;;;5075043;28;20024;-37
2021/11/08 04:11:42;;;;;;;6.35;2.17;;;8.50;99.90;;;;;;5074981;28;20036;-37
2021/11/08 04:14:10;;;;;;;9.35;2.30;;;8.50;99.90;;;;;;5073567;28;20035;-37
2021/11/08 04:16:36;;;;;;;6.05;1.92;;;8.50;99.90;;;;;;5074924;28;20027;-37
2021/11/08 04:19:03;;;;;;;7.63;2.33;;;8.50;99.90;;;;;;5074783;28;20024;-37
2021/11/08 04:21:30;;;;;;;5.35;1.38;;;8.50;99.90;;;;;;5074746;28;20028;-37
2021/11/08 04:23:56;;;;;;;5.28;2.03;;;8.50;99.90;;;;;;5074768;28;20028;-37
2021/11/08 04:26:24;;;;;;;4.03;1.40;;;8.50;99.90;;;;;;5074682;28;20025;-37
2021/11/08 04:29:24;;;;;;;2.65;1.20;;;8.50;99.90;;;;;;5073443;28;20054;-38
2021/11/08 04:31:42;;;;;;;8.32;1.80;;;8.50;99.90;;;;;;5072223;28;20391;-39
2021/11/08 04:34:22;;;;;;;3.88;1.50;;;8.50;99.90;;;;;;5074486;28;20033;-37
2021/11/08 04:42:15;;;;;;;4.93;1.60;;;8.50;99.90;;;;;;5073022;28;20099;-39
2021/11/08 04:45:11;;;;;;;5.82;1.67;;;8.50;99.90;;;;;;5074388;28;20103;-37
2021/11/08 04:48:08;;;;;;;6.63;1.35;;;8.50;99.90;;;;;;5074382;28;20028;-37
2021/11/08 04:50:43;;;;;;;5.05;1.17;;;8.50;99.90;;;;;;5074113;28;20021;-38
2021/11/08 04:53:29;;;;;;;5.73;1.23;;;8.50;99.90;;;;;;5074532;28;20051;-38
2021/11/08 04:56:29;;;;;;;3.35;1.20;;;8.50;99.90;;;;;;5074167;28;20251;-37
2021/11/08 05:20:58;;;;;;;2.88;2.03;;;8.50;99.90;;;;;;5072691;28;20108;-38
2021/11/08 05:30:00;;;;;;;3.70;1.55;;;8.70;99.90;;;;;;5055938;28;20036;-38
2021/11/08 05:31:51;;;;;;;8.23;1.88;;;8.70;99.90;;;;;;5059775;28;20032;-38
2021/11/08 05:34:18;;;;;;;7.32;1.80;;;8.70;99.90;;;;;;5073248;28;20035;-38
2021/11/08 05:36:44;;;;;;;4.25;1.58;;;8.60;99.90;;;;;;5073393;28;20116;-36
2021/11/08 05:39:10;;;;;;;8.95;1.77;;;8.70;99.90;;;;;;5073237;28;20029;-38
2021/11/08 05:41:37;;;;;;;3.70;1.75;;;8.60;99.90;;;;;;5073203;28;20024;-37
2021/11/08 05:44:04;;;;;;;4.53;1.33;;;8.70;99.90;;;;;;5068065;28;20043;-38
2021/11/08 05:46:31;;;;;;;4.28;1.60;;;8.70;99.90;;;;;;5072878;28;20029;-37
2021/11/08 05:48:56;;;;;;;3.13;1.77;;;8.70;99.90;;;;;;5072781;28;20063;-38
2021/11/08 05:51:22;;;;;;;7.68;1.33;;;8.70;99.90;;;;;;5073050;28;20419;-37
2021/11/08 05:53:50;;;;;;;8.43;1.90;;;8.80;99.90;;;;;;5073027;28;20047;-37
2021/11/08 05:56:30;;;;;;;4.75;1.40;;;8.70;99.90;;;;;;5072935;28;20417;-38
2021/11/08 05:59:12;;;;;;;6.25;1.63;;;8.80;99.90;;;;;;5071737;28;20033;-36
2021/11/08 06:50:42;;;;;;;6.55;1.80;;;9.00;99.90;;;;;;5071232;28;20104;-38
2021/11/08 06:53:18;;;;;;;7.38;2.05;;;9.00;99.90;;;;;;5071042;28;20476;-39
2021/11/08 06:55:48;;;;;;;8.98;2.15;;;9.10;99.90;;;;;;5071151;28;20115;-38
2021/11/08 06:58:17;;;;;;;9.75;2.03;;;9.10;99.90;;;;;;5069829;28;20029;-38
2021/11/08 07:00:45;;;;;;;7.57;2.85;;;9.10;99.90;;;;;;5071105;28;20040;-38
2021/11/08 07:03:14;;;;;;;7.95;1.88;;;9.10;99.90;;;;;;5068841;28;20052;-38
2021/11/08 07:05:40;;;;;;;4.18;1.55;;;9.10;99.90;;;;;;5070563;28;20021;-39
2021/11/08 07:08:08;;;;;;;4.55;1.55;;;9.10;99.90;;;;;;5070363;28;20070;-38
2021/11/08 07:10:34;;;;;;;6.75;1.75;;;9.10;99.90;;;;;;5070556;28;20056;-38
2021/11/08 07:13:00;;;;;;;6.60;1.58;;;9.20;99.90;;;;;;5069605;28;20033;-39
2021/11/08 07:15:26;;;;;;;9.43;2.08;;;9.20;99.90;;;;;;5070682;28;20023;-37
2021/11/08 07:17:55;;;;;;;7.47;2.40;;;9.20;99.90;;;;;;5070364;28;20369;-39
2021/11/08 07:20:21;;;;;;;7.43;1.65;;;9.20;99.90;;;;;;5070693;28;20379;-37
2021/11/08 07:22:48;;;;;;;12.32;1.85;;;9.30;99.90;;;;;;5070058;28;20033;-38
2021/11/08 07:25:14;;;;;;;8.68;2.33;;;9.30;99.90;;;;;;5069411;28;20027;-39
2021/11/08 07:27:40;;;;;;;8.50;1.55;;;9.30;99.90;;;;;;5069490;28;20064;-38
2021/11/08 07:30:07;;;;;;;5.43;1.88;;;9.30;99.90;;;;;;5070546;28;20106;-38
2021/11/08 07:32:33;;;;;;;10.10;2.00;;;9.40;99.90;;;;;;5069982;28;20040;-37
2021/11/08 07:34:59;;;;;;;8.75;2.25;;;9.40;99.90;;;;;;5072103;28;20054;-37
2021/11/08 07:37:24;;;;;;;4.28;1.63;;;9.40;99.90;;;;;;5071745;28;20047;-38
2021/11/08 07:39:50;;;;;;;6.82;1.80;;;9.50;99.90;;;;;;5071966;28;20025;-37
2021/11/08 07:42:18;;;;;;;6.70;1.50;;;9.50;99.90;;;;;;5071766;28;20052;-37
2021/11/08 07:44:43;;;;;;;6.03;2.17;;;9.50;99.90;;;;;;5075484;28;20088;-37
2021/11/08 07:47:09;;;;;;;9.48;2.42;;;9.50;99.90;;;;;;5075437;28;20032;-38
2021/11/08 07:49:41;;;;;;;7.00;2.65;;;9.50;99.90;;;;;;5075228;28;20115;-37
2021/11/08 07:52:10;;;;;;;10.68;2.95;;;9.60;99.90;;;;;;5075163;28;20020;-38
2021/11/08 07:54:37;;;;;;;10.82;2.17;;;9.60;99.90;;;;;;5075225;28;20437;-37
2021/11/08 07:57:10;;;;;;;10.65;2.30;;;9.70;99.90;;;;;;5073991;28;20174;-38
2021/11/08 07:59:35;;;;;;;9.90;2.83;;;9.70;99.90;;;;;;5073864;28;20020;-38
2021/11/08 08:02:02;;;;;;;4.63;2.55;;;9.70;99.90;;;;;;5075253;28;20404;-37
2021/11/08 08:04:30;;;;;;;8.52;2.47;;;9.70;99.90;;;;;;5075022;28;20029;-38
2021/11/08 08:06:56;;;;;;;8.70;2.50;;;9.70;99.90;;;;;;5074073;28;20033;-38
2021/11/08 08:09:22;;;;;;;7.03;2.30;;;9.70;99.90;;;;;;5075067;28;20025;-38
2021/11/08 08:11:51;;;;;;;11.57;2.80;;;9.70;99.90;;;;;;5075070;28;20103;-38
2021/11/08 08:14:17;;;;;;;7.70;2.15;;;9.80;99.90;;;;;;5072792;28;20478;-38
2021/11/08 08:16:42;;;;;;;10.15;2.13;;;9.80;99.90;;;;;;5074908;28;20024;-38
2021/11/08 08:19:08;;;;;;;7.18;1.92;;;9.80;99.90;;;;;;5074831;28;20028;-39
2021/11/08 08:21:37;;;;;;;7.25;2.10;;;9.80;99.90;;;;;;5074836;28;20511;-38
2021/11/08 08:24:03;;;;;;;10.48;2.17;;;9.80;99.90;;;;;;5073660;28;20028;-38
2021/11/08 08:26:37;;;;;;;9.25;2.67;;;9.90;99.90;;;;;;5074599;28;20115;-38
2021/11/08 08:29:07;;;;;;;7.22;1.80;;;9.90;99.90;;;;;;5073654;28;20349;-38
2021/11/08 08:31:35;;;;;;;7.25;1.77;;;10.00;99.90;;;;;;5074307;28;20013;-37
2021/11/08 08:34:02;;;;;;;6.40;2.00;;;10.00;99.90;;;;;;5074650;28;20044;-37
2021/11/08 08:36:28;;;;;;;7.22;1.75;;;10.20;99.90;;;;;;5074463;28;20039;-39
2021/11/08 08:38:54;;;;;;;10.27;2.38;;;10.20;99.90;;;;;;5074571;28;20100;-37
2021/11/08 08:41:20;;;;;;;5.78;2.58;;;10.20;99.90;;;;;;5074468;28;20132;-37
2021/11/08 08:43:46;;;;;;;7.03;1.60;;;10.20;99.90;;;;;;5073046;28;20035;-37
2021/11/08 08:46:13;;;;;;;10.18;2.53;;;10.30;99.90;;;;;;5074321;28;20052;-37
2021/11/08 08:48:40;;;;;;;4.90;1.60;;;10.40;99.90;;;;;;5074234;28;20063;-36
2021/11/08 08:51:07;;;;;;;7.45;1.80;;;10.40;99.90;;;;;;5074297;28;20101;-38
2021/11/08 08:53:34;;;;;;;5.72;1.58;;;10.50;99.90;;;;;;5074244;28;20036;-37
2021/11/08 08:56:00;;;;;;;7.55;2.20;;;10.60;99.90;;;;;;5074286;28;20028;-37
2021/11/08 08:58:25;;;;;;;5.97;2.13;;;10.60;99.90;;;;;;5072932;28;20359;-38
2021/11/08 09:00:52;;;;;;;6.50;1.40;;;10.70;99.90;;;;;;5073957;28;20065;-37
2021/11/08 09:03:18;;;;;;;6.63;2.10;;;10.80;99.90;;;;;;5074087;28;20464;-38
2021/11/08 09:05:46;;;;;;;12.30;2.30;;;10.80;99.90;;;;;;5073938;28;20082;-38
2021/11/08 09:08:11;;;;;;;3.58;1.50;;;10.90;99.90;;;;;;5073945;28;20032;-38
2021/11/08 09:10:38;;;;;;;5.95;1.73;;;10.90;99.90;;;;;;5073785;28;20051;-37
2021/11/08 09:13:06;;;;;;;5.88;1.60;;;11.00;99.90;;;;;;5072476;28;20032;-38
2021/11/08 09:15:34;;;;;;;5.45;1.50;;;10.90;99.90;;;;;;5073606;28;20341;-37
2021/11/08 09:18:01;;;;;;;5.55;2.33;;;10.90;99.90;;;;;;5073687;28;20106;-37
2021/11/08 09:20:27;;;;;;;5.82;1.48;;;10.80;99.90;;;;;;5073691;28;20535;-37
2021/11/08 09:22:54;;;;;;;5.65;1.60;;;10.80;99.90;;;;;;5073548;28;20032;-38
2021/11/08 09:25:21;;;;;;;5.55;1.70;;;10.70;99.90;;;;;;5073822;28;20394;-38
2021/11/08 09:27:49;;;;;;;8.45;1.75;;;10.70;99.90;;;;;;5072140;28;20070;-37
2021/11/08 09:30:16;;;;;;;9.25;2.00;;;10.70;99.90;;;;;;5073239;28;20035;-37
2021/11/08 09:32:43;;;;;;;5.32;1.60;;;10.70;99.90;;;;;;5073123;28;20480;-39
2021/11/08 09:35:09;;;;;;;4.22;1.30;;;10.70;99.90;;;;;;5073451;28;20189;-37
2021/11/08 09:37:42;;;;;;;6.78;1.60;;;10.70;99.90;;;;;;5073326;28;20027;-37
2021/11/08 09:40:10;;;;;;;5.95;1.20;;;10.70;99.90;;;;;;5073325;28;20376;-37
2021/11/08 09:42:37;;;;;;;3.55;1.50;;;10.70;99.90;;;;;;5071800;28;20071;-37
2021/11/08 09:45:05;;;;;;;3.38;1.23;;;10.80;99.90;;;;;;5073229;28;20056;-37
2021/11/08 09:47:32;;;;;;;3.15;1.05;;;10.80;99.90;;;;;;5073095;28;20099;-37
2021/11/08 09:50:01;;;;;;;5.53;1.50;;;10.80;99.90;;;;;;5073124;28;20543;-39
2021/11/08 09:52:29;;;;;;;3.60;1.05;;;10.80;99.90;;;;;;5073056;28;20453;-39
2021/11/08 09:54:56;;;;;;;4.90;1.08;;;10.80;99.90;;;;;;5073148;28;20031;-37
2021/11/08 09:57:24;;;;;;;3.40;1.27;;;10.80;99.90;;;;;;5071563;28;20123;-37
2021/11/08 09:59:51;;;;;;;3.42;1.17;;;10.80;99.90;;;;;;5072933;28;20036;-39
2021/11/08 10:02:17;;;;;;;4.90;1.30;;;10.80;99.90;;;;;;5072996;28;20387;-38
2021/11/08 10:04:43;;;;;;;3.35;1.25;;;10.70;99.90;;;;;;5072403;28;20113;-37
2021/11/08 10:07:09;;;;;;;4.85;1.60;;;10.60;99.90;;;;;;5072957;28;20476;-38
2021/11/08 10:09:36;;;;;;;3.40;1.55;;;10.60;99.90;;;;;;5072768;28;20103;-39
2021/11/08 10:12:07;;;;;;;2.90;1.02;;;10.60;99.90;;;;;;5071400;28;20020;-37
2021/11/08 10:14:33;;;;;;;2.97;0.90;;;10.60;99.90;;;;;;5072699;28;20016;-39
2021/11/08 10:17:01;;;;;;;4.65;1.30;;;10.60;99.90;;;;;;5073129;28;20076;-40
2021/11/08 10:19:27;;;;;;;2.53;1.15;;;10.70;99.90;;;;;;5072723;28;20016;-37
2021/11/08 10:21:55;;;;;;;2.78;1.20;;;10.70;99.90;;;;;;5072637;28;20025;-38
2021/11/08 10:24:39;;;;;;;5.53;1.15;;;10.80;99.90;;;;;;5072627;28;20024;-39
2021/11/08 10:27:11;;;;;;;2.38;1.00;;;10.80;99.90;;;;;;5071392;28;20032;-39
2021/11/08 10:29:43;;;;;;;1.35;0.90;;;10.90;99.90;;;;;;5072567;28;20019;-39
2021/11/08 10:32:09;;;;;;;3.10;0.90;;;10.90;99.90;;;;;;5072299;28;20079;-37
2021/11/08 10:34:56;;;;;;;5.90;1.40;;;10.90;99.90;;;;;;5072531;28;20369;-39
2021/11/08 10:37:31;;;;;;;3.10;1.10;;;10.90;99.90;;;;;;5072695;28;20198;-37
2021/11/08 10:39:58;;;;;;;3.78;1.10;;;10.90;99.90;;;;;;5072456;28;20131;-38
2021/11/08 10:42:30;;;;;;;5.57;1.35;;;10.90;99.90;;;;;;5071276;28;20024;-38
2021/11/08 10:44:57;;;;;;;2.65;1.20;;;10.90;99.90;;;;;;5072778;28;20371;-37
2021/11/08 10:47:22;;;;;;;7.32;1.42;;;10.90;99.90;;;;;;5072373;28;20447;-38
2021/11/08 10:49:49;;;;;;;3.22;1.55;;;10.90;99.90;;;;;;5072373;28;20078;-38
2021/11/08 10:52:18;;;;;;;2.92;1.00;;;10.90;99.90;;;;;;5072339;28;20550;-37
2021/11/08 10:54:48;;;;;;;5.43;2.20;;;10.90;99.90;;;;;;5072354;28;20091;-37
2021/11/08 10:57:17;;;;;;;5.35;1.48;;;11.00;99.90;;;;;;5071121;28;20031;-38
2021/11/08 10:59:48;;;;;;;4.00;1.52;;;11.00;99.90;;;;;;5072154;28;20089;-37
2021/11/08 11:02:15;;;;;;;4.15;1.23;;;11.00;99.90;;;;;;5072275;28;20032;-38
2021/11/08 11:04:44;;;;;;;4.72;1.40;;;11.00;99.90;;;;;;5072204;28;20028;-37
2021/11/08 11:07:34;;;;;;;5.30;1.55;;;11.00;99.90;;;;;;5072346;28;20383;-40
2021/11/08 11:10:07;;;;;;;3.63;1.20;;;11.00;99.90;;;;;;5072149;28;20032;-38
2021/11/08 11:12:34;;;;;;;2.70;1.30;;;11.10;99.90;;;;;;5070800;28;20075;-40
2021/11/08 11:15:07;;;;;;;6.75;2.25;;;11.10;99.90;;;;;;5072186;28;20029;-37
2021/11/08 11:17:44;;;;;;;5.90;1.65;;;11.10;99.90;;;;;;5074378;28;20440;-37
2021/11/08 11:20:17;;;;;;;3.47;1.08;;;11.10;99.90;;;;;;5075908;28;20028;-38
2021/11/08 11:22:53;;;;;;;5.75;1.50;;;11.10;99.90;;;;;;5075785;28;20070;-38
2021/11/08 11:25:21;;;;;;;5.57;1.50;;;11.10;99.90;;;;;;5076026;28;20107;-37
2021/11/08 11:27:50;;;;;;;8.15;1.60;;;11.10;99.90;;;;;;5074472;28;20526;-37
2021/11/08 11:30:23;;;;;;;5.68;1.27;;;11.10;99.90;;;;;;5075885;28;20024;-37
2021/11/08 11:32:58;;;;;;;9.18;1.30;;;11.20;99.90;;;;;;5075488;28;20037;-38
2021/11/08 11:35:28;;;;;;;5.30;1.27;;;11.20;99.90;;;;;;5075657;28;20021;-39
2021/11/08 11:38:02;;;;;;;2.42;0.90;;;11.20;99.90;;;;;;5075534;28;20653;-38
2021/11/08 11:40:31;;;;;;;3.92;1.17;;;11.20;99.90;;;;;;5075612;28;20472;-38
2021/11/08 11:43:00;;;;;;;6.82;1.80;;;11.30;99.90;;;;;;5074254;28;20476;-38
2021/11/08 11:45:26;;;;;;;4.93;1.70;;;11.40;99.90;;;;;;5075577;28;20040;-38
2021/11/08 11:47:56;;;;;;;5.38;1.13;;;11.50;99.90;;;;;;5075269;28;20025;-38
2021/11/08 11:50:23;;;;;;;5.10;1.25;;;11.70;99.90;;;;;;5075415;28;20094;-37
2021/11/08 11:52:49;;;;;;;5.43;1.20;;;11.70;99.90;;;;;;5075221;28;20028;-37
2021/11/08 11:55:16;;;;;;;7.10;1.63;;;11.80;99.90;;;;;;5075409;28;20126;-37
2021/11/08 11:57:42;;;;;;;10.52;1.75;;;11.80;99.90;;;;;;5073986;28;20468;-38
2021/11/08 12:00:08;;;;;;;4.07;1.30;;;11.90;99.90;;;;;;5075217;28;20031;-37
2021/11/08 12:02:34;;;;;;;3.90;1.20;;;11.90;99.90;;;;;;5075068;28;20025;-38
2021/11/08 12:04:59;;;;;;;5.97;1.77;;;11.90;99.90;;;;;;5075084;28;20111;-37
2021/11/08 12:07:25;;;;;;;6.28;1.70;;;12.00;99.90;;;;;;5075188;28;20058;-38
2021/11/08 12:09:52;;;;;;;6.13;1.73;;;11.90;99.90;;;;;;5075203;28;20043;-37
2021/11/08 12:12:23;;;;;;;4.60;1.60;;;11.90;99.90;;;;;;5073670;28;20035;-38
2021/11/08 12:15:09;;;;;;;8.93;1.80;;;11.90;99.90;;;;;;5074805;28;20096;-38
2021/11/08 12:17:44;;;;;;;8.77;1.92;;;11.90;99.90;;;;;;5074920;28;20090;-41
2021/11/08 12:20:13;;;;;;;11.47;1.90;;;11.90;99.90;;;;;;5074925;28;20174;-37
2021/11/08 12:22:39;;;;;;;3.92;1.90;;;11.80;99.90;;;;;;5073597;28;20039;-37
2021/11/08 12:25:17;;;;;;;13.23;2.63;;;11.80;99.90;;;;;;5074724;28;20024;-37
2021/11/08 12:27:46;;;;;;;7.22;1.88;;;11.80;99.90;;;;;;5072961;28;20036;-37
2021/11/08 12:30:16;;;;;;;9.85;2.67;;;11.70;99.90;;;;;;5074631;28;20032;-38
2021/11/08 12:32:54;;;;;;;9.13;2.17;;;11.80;99.90;;;;;;5074403;28;20050;-37
2021/11/08 12:35:28;;;;;;;5.03;1.60;;;11.80;99.90;;;;;;5074647;28;20027;-39
2021/11/08 12:37:54;;;;;;;7.07;1.52;;;11.70;99.90;;;;;;5074385;28;20020;-37
2021/11/08 12:40:24;;;;;;;6.03;1.73;;;11.70;99.90;;;;;;5074565;28;20020;-38
2021/11/08 12:42:53;;;;;;;4.78;1.50;;;11.70;99.90;;;;;;5073086;28;20040;-37
2021/11/08 12:45:23;;;;;;;8.50;2.30;;;11.70;99.90;;;;;;5074487;28;20372;-38
2021/11/08 12:48:03;;;;;;;5.68;1.40;;;11.70;99.90;;;;;;5074324;28;20033;-37
2021/11/08 12:50:44;;;;;;;4.60;1.40;;;11.70;99.90;;;;;;5074258;28;20024;-38
2021/11/08 12:53:44;;;;;;;5.68;1.38;;;11.70;99.90;;;;;;5074285;28;20032;-37
2021/11/08 12:56:21;;;;;;;6.65;1.38;;;11.70;99.90;;;;;;5062139;28;20042;-39
2021/11/08 12:58:51;;;;;;;8.50;1.65;;;11.70;99.90;;;;;;5072921;28;20369;-37
2021/11/08 13:01:21;;;;;;;12.80;2.13;;;11.60;99.90;;;;;;5074186;28;20053;-37
2021/11/08 13:03:51;;;;;;;4.78;1.50;;;11.60;99.90;;;;;;5074090;28;20143;-36
2021/11/08 13:06:28;;;;;;;4.53;1.42;;;11.60;99.90;;;;;;5074123;28;20035;-40
2021/11/08 13:09:16;;;;;;;2.83;0.90;;;11.60;99.90;;;;;;5073974;28;20021;-37
2021/11/08 13:11:54;;;;;;;8.82;1.90;;;11.60;99.90;;;;;;5052303;28;20099;-37
2021/11/08 13:14:35;;;;;;;7.68;1.40;;;11.50;99.90;;;;;;5052327;28;20033;-38
2021/11/08 13:17:05;;;;;;;5.43;1.33;;;11.40;99.90;;;;;;5052029;28;20108;-37
2021/11/08 13:19:31;;;;;;;4.85;1.48;;;11.40;99.90;;;;;;5052400;28;20083;-37
2021/11/08 13:22:08;;;;;;;10.10;1.50;;;11.40;99.90;;;;;;5052303;28;20448;-39
2021/11/08 13:24:35;;;;;;;5.30;1.40;;;11.40;99.90;;;;;;5052452;28;20110;-39
2021/11/08 13:27:01;;;;;;;6.28;1.35;;;11.40;99.90;;;;;;5051374;28;20120;-38
2021/11/08 13:29:26;;;;;;;7.03;1.27;;;11.40;99.90;;;;;;5052227;28;20116;-41
2021/11/08 13:31:51;;;;;;;4.35;1.10;;;11.40;99.90;;;;;;5053195;28;20049;-38
2021/11/08 13:34:18;;;;;;;5.18;1.33;;;11.40;99.90;;;;;;5053288;28;20029;-38
2021/11/08 13:36:46;;;;;;;7.70;1.00;;;11.40;99.90;;;;;;5053165;28;20029;-39
2021/11/08 13:39:12;;;;;;;9.20;2.20;;;11.40;99.90;;;;;;5052730;28;20028;-39
2021/11/08 13:41:38;;;;;;;9.25;1.60;;;11.30;99.90;;;;;;5052962;28;20025;-40
2021/11/08 13:44:11;;;;;;;8.57;1.40;;;11.30;99.90;;;;;;5051459;28;20025;-38
2021/11/08 13:46:41;;;;;;;5.63;1.30;;;11.20;99.90;;;;;;5052726;28;20033;-37
2021/11/08 13:49:13;;;;;;;6.13;1.63;;;11.20;99.90;;;;;;5053041;28;20102;-39
2021/11/08 13:51:46;;;;;;;5.30;1.63;;;11.20;99.90;;;;;;5052688;28;20033;-39
2021/11/08 13:54:27;;;;;;;6.72;1.35;;;11.20;99.90;;;;;;5053001;28;20029;-41
2021/11/08 13:56:54;;;;;;;6.95;1.38;;;11.10;99.90;;;;;;5051685;28;20021;-38
2021/11/08 13:59:27;;;;;;;5.95;1.85;;;11.10;99.90;;;;;;5052873;28;20378;-42
2021/11/08 14:01:58;;;;;;;5.00;1.30;;;11.10;99.90;;;;;;5052913;28;20151;-38
2021/11/08 14:04:31;;;;;;;8.40;2.00;;;11.00;99.90;;;;;;5052964;28;20036;-38
2021/11/08 14:06:57;;;;;;;17.38;3.67;;;10.90;99.90;;;;;;5052945;28;20027;-38
2021/11/08 14:09:23;;;;;;;27.30;6.53;;;10.80;99.90;;;;;;5052882;28;20025;-37
2021/11/08 14:11:52;;;;;;;20.77;5.70;;;10.80;99.90;;;;;;5051610;28;20021;-39
2021/11/08 14:14:27;;;;;;;19.65;5.55;;;10.90;99.90;;;;;;5052760;28;20025;-39
2021/11/08 14:16:55;;;;;;;11.17;4.10;;;10.90;99.90;;;;;;5052784;28;20048;-41
2021/11/08 14:19:23;;;;;;;6.97;3.10;;;10.90;99.90;;;;;;5052613;28;20299;-38
2021/11/08 14:21:53;;;;;;;8.77;2.40;;;10.90;99.90;;;;;;5052682;28;20095;-38
2021/11/08 14:24:21;;;;;;;10.48;1.90;;;10.90;99.90;;;;;;5052490;28;20483;-37
2021/11/08 14:26:54;;;;;;;5.10;1.83;;;10.90;99.90;;;;;;5051734;28;20063;-37